sensor_id;sensor_type;location;lat;lon;timestamp;P1;durP1;ratioP1;P2;durP2;ratioP2
15383;SDS011;7790;53.022;12.968;2023-03-21T00:02:45;0.90;;;0.90;;
15383;SDS011;7790;53.022;12.968;2023-03-21T00:06:46;1.27;;;1.17;;
15383;SDS011;7790;53.022;12.968;2023-03-21T00:10:47;1.10;;;1.10;;
15383;SDS011;7790;53.022;12.968;2023-03-21T00:14:56;1.10;;;1.10;;
15383;SDS011;7790;53.022;12.968;2023-03-21T00:19:03;1.20;;;1.10;;
15383;SDS011;7790;53.022;12.968;2023-03-21T00:23:09;0.90;;;0.90;;
15383;SDS011;7790;53.022;12.968;2023-03-21T00:27:09;1.17;;;1.17;;
15383;SDS011;7790;53.022;12.968;2023-03-21T00:31:10;1.00;;;0.90;;
15383;SDS011;7790;53.022;12.968;2023-03-21T00:35:11;0.90;;;0.90;;
15383;SDS011;7790;53.022;12.968;2023-03-21T00:39:12;1.63;;;1.10;;
15383;SDS011;7790;53.022;12.968;2023-03-21T00:43:13;1.13;;;1.00;;
15383;SDS011;7790;53.022;12.968;2023-03-21T00:47:16;1.27;;;0.90;;
15383;SDS011;7790;53.022;12.968;2023-03-21T00:51:18;0.80;;;0.80;;
15383;SDS011;7790;53.022;12.968;2023-03-21T00:55:25;1.17;;;1.13;;
15383;SDS011;7790;53.022;12.968;2023-03-21T00:59:27;1.10;;;1.10;;
15383;SDS011;7790;53.022;12.968;2023-03-21T01:03:29;1.00;;;0.80;;
15383;SDS011;7790;53.022;12.968;2023-03-21T01:07:30;0.90;;;0.90;;
15383;SDS011;7790;53.022;12.968;2023-03-21T01:11:31;1.20;;;1.10;;
15383;SDS011;7790;53.022;12.968;2023-03-21T01:15:32;1.03;;;1.03;;
15383;SDS011;7790;53.022;12.968;2023-03-21T01:19:33;0.93;;;0.93;;
15383;SDS011;7790;53.022;12.968;2023-03-21T01:23:34;1.20;;;1.10;;
15383;SDS011;7790;53.022;12.968;2023-03-21T01:27:35;0.83;;;0.83;;
15383;SDS011;7790;53.022;12.968;2023-03-21T01:31:36;0.83;;;0.83;;
15383;SDS011;7790;53.022;12.968;2023-03-21T01:35:37;0.90;;;0.90;;
15383;SDS011;7790;53.022;12.968;2023-03-21T01:39:38;0.80;;;0.80;;
15383;SDS011;7790;53.022;12.968;2023-03-21T01:43:39;0.80;;;0.80;;
15383;SDS011;7790;53.022;12.968;2023-03-21T01:47:42;1.00;;;1.00;;
15383;SDS011;7790;53.022;12.968;2023-03-21T01:51:57;0.80;;;0.80;;
15383;SDS011;7790;53.022;12.968;2023-03-21T01:56:13;0.97;;;0.90;;
15383;SDS011;7790;53.022;12.968;2023-03-21T02:00:28;0.80;;;0.80;;
15383;SDS011;7790;53.022;12.968;2023-03-21T02:04:43;0.90;;;0.90;;
15383;SDS011;7790;53.022;12.968;2023-03-21T02:08:53;1.23;;;1.10;;
15383;SDS011;7790;53.022;12.968;2023-03-21T02:12:55;1.17;;;1.03;;
15383;SDS011;7790;53.022;12.968;2023-03-21T02:21:28;1.10;;;1.00;;
15383;SDS011;7790;53.022;12.968;2023-03-21T02:25:58;1.23;;;1.13;;
15383;SDS011;7790;53.022;12.968;2023-03-21T02:30:24;0.87;;;0.73;;
15383;SDS011;7790;53.022;12.968;2023-03-21T02:39:13;1.43;;;0.90;;
15383;SDS011;7790;53.022;12.968;2023-03-21T02:51:39;2.57;;;0.90;;
15383;SDS011;7790;53.022;12.968;2023-03-21T02:55:42;0.77;;;0.73;;
15383;SDS011;7790;53.022;12.968;2023-03-21T02:59:45;1.17;;;0.60;;
15383;SDS011;7790;53.022;12.968;2023-03-21T03:03:50;3.63;;;1.00;;
15383;SDS011;7790;53.022;12.968;2023-03-21T03:07:56;2.30;;;0.73;;
15383;SDS011;7790;53.022;12.968;2023-03-21T03:25:11;1.33;;;1.00;;
15383;SDS011;7790;53.022;12.968;2023-03-21T03:29:18;0.60;;;0.60;;
15383;SDS011;7790;53.022;12.968;2023-03-21T03:33:21;1.50;;;0.70;;
15383;SDS011;7790;53.022;12.968;2023-03-21T03:37:24;2.10;;;0.80;;
15383;SDS011;7790;53.022;12.968;2023-03-21T03:41:29;0.83;;;0.77;;
15383;SDS011;7790;53.022;12.968;2023-03-21T03:45:36;0.67;;;0.67;;
15383;SDS011;7790;53.022;12.968;2023-03-21T03:50:32;2.83;;;0.87;;
15383;SDS011;7790;53.022;12.968;2023-03-21T03:54:23;1.57;;;1.03;;
15383;SDS011;7790;53.022;12.968;2023-03-21T03:58:31;1.07;;;0.93;;
15383;SDS011;7790;53.022;12.968;2023-03-21T04:02:34;0.73;;;0.73;;
15383;SDS011;7790;53.022;12.968;2023-03-21T04:06:36;2.53;;;1.10;;
15383;SDS011;7790;53.022;12.968;2023-03-21T04:10:40;1.47;;;0.97;;
15383;SDS011;7790;53.022;12.968;2023-03-21T04:14:43;3.73;;;1.33;;
15383;SDS011;7790;53.022;12.968;2023-03-21T04:18:44;4.03;;;1.10;;
15383;SDS011;7790;53.022;12.968;2023-03-21T04:22:47;3.97;;;0.93;;
15383;SDS011;7790;53.022;12.968;2023-03-21T04:26:48;1.90;;;0.83;;
15383;SDS011;7790;53.022;12.968;2023-03-21T04:31:12;3.43;;;1.00;;
15383;SDS011;7790;53.022;12.968;2023-03-21T04:35:19;1.03;;;0.80;;
15383;SDS011;7790;53.022;12.968;2023-03-21T04:39:21;1.23;;;0.87;;
15383;SDS011;7790;53.022;12.968;2023-03-21T04:43:24;1.30;;;0.63;;
15383;SDS011;7790;53.022;12.968;2023-03-21T04:47:25;0.93;;;0.90;;
15383;SDS011;7790;53.022;12.968;2023-03-21T04:51:28;0.93;;;0.80;;
15383;SDS011;7790;53.022;12.968;2023-03-21T04:55:29;2.40;;;0.90;;
15383;SDS011;7790;53.022;12.968;2023-03-21T04:59:31;0.93;;;0.90;;
15383;SDS011;7790;53.022;12.968;2023-03-21T05:03:32;0.60;;;0.60;;
15383;SDS011;7790;53.022;12.968;2023-03-21T05:07:39;1.33;;;0.80;;
15383;SDS011;7790;53.022;12.968;2023-03-21T05:11:40;2.43;;;0.83;;
15383;SDS011;7790;53.022;12.968;2023-03-21T05:15:44;1.90;;;0.70;;
15383;SDS011;7790;53.022;12.968;2023-03-21T05:19:45;1.23;;;0.90;;
15383;SDS011;7790;53.022;12.968;2023-03-21T05:23:46;2.60;;;0.83;;
15383;SDS011;7790;53.022;12.968;2023-03-21T05:27:54;1.03;;;0.83;;
15383;SDS011;7790;53.022;12.968;2023-03-21T05:32:00;2.03;;;0.83;;
15383;SDS011;7790;53.022;12.968;2023-03-21T05:36:02;0.80;;;0.80;;
15383;SDS011;7790;53.022;12.968;2023-03-21T05:40:05;2.50;;;0.83;;
15383;SDS011;7790;53.022;12.968;2023-03-21T05:44:11;1.80;;;1.00;;
15383;SDS011;7790;53.022;12.968;2023-03-21T05:48:13;1.80;;;1.40;;
15383;SDS011;7790;53.022;12.968;2023-03-21T05:52:32;1.37;;;0.90;;
15383;SDS011;7790;53.022;12.968;2023-03-21T05:56:38;1.00;;;0.90;;
15383;SDS011;7790;53.022;12.968;2023-03-21T06:00:41;1.37;;;1.00;;
15383;SDS011;7790;53.022;12.968;2023-03-21T06:04:57;1.00;;;1.00;;
15383;SDS011;7790;53.022;12.968;2023-03-21T06:08:58;1.03;;;1.03;;
15383;SDS011;7790;53.022;12.968;2023-03-21T06:13:00;1.30;;;1.10;;
15383;SDS011;7790;53.022;12.968;2023-03-21T06:17:06;1.00;;;1.00;;
15383;SDS011;7790;53.022;12.968;2023-03-21T06:21:10;1.00;;;0.93;;
15383;SDS011;7790;53.022;12.968;2023-03-21T06:25:13;1.10;;;1.00;;
15383;SDS011;7790;53.022;12.968;2023-03-21T06:29:14;1.10;;;1.00;;
15383;SDS011;7790;53.022;12.968;2023-03-21T06:33:21;0.90;;;0.90;;
15383;SDS011;7790;53.022;12.968;2023-03-21T06:37:22;1.00;;;1.00;;
15383;SDS011;7790;53.022;12.968;2023-03-21T06:41:23;1.00;;;0.93;;
15383;SDS011;7790;53.022;12.968;2023-03-21T06:45:31;1.40;;;1.30;;
15383;SDS011;7790;53.022;12.968;2023-03-21T06:49:32;1.17;;;1.10;;
15383;SDS011;7790;53.022;12.968;2023-03-21T06:53:40;1.90;;;1.27;;
15383;SDS011;7790;53.022;12.968;2023-03-21T06:57:57;1.43;;;1.23;;
15383;SDS011;7790;53.022;12.968;2023-03-21T07:02:01;1.50;;;1.40;;
15383;SDS011;7790;53.022;12.968;2023-03-21T07:06:04;1.77;;;1.30;;
15383;SDS011;7790;53.022;12.968;2023-03-21T07:10:08;2.03;;;1.67;;
15383;SDS011;7790;53.022;12.968;2023-03-21T07:14:18;1.43;;;1.33;;
15383;SDS011;7790;53.022;12.968;2023-03-21T07:18:19;2.00;;;1.50;;
15383;SDS011;7790;53.022;12.968;2023-03-21T07:22:21;1.50;;;1.40;;
15383;SDS011;7790;53.022;12.968;2023-03-21T07:26:21;1.10;;;1.10;;
15383;SDS011;7790;53.022;12.968;2023-03-21T07:30:23;2.60;;;1.40;;
15383;SDS011;7790;53.022;12.968;2023-03-21T07:34:23;1.20;;;1.10;;
15383;SDS011;7790;53.022;12.968;2023-03-21T07:38:26;1.40;;;1.30;;
15383;SDS011;7790;53.022;12.968;2023-03-21T07:42:30;1.63;;;1.43;;
15383;SDS011;7790;53.022;12.968;2023-03-21T07:46:34;2.00;;;1.50;;
15383;SDS011;7790;53.022;12.968;2023-03-21T07:50:35;1.53;;;1.30;;
15383;SDS011;7790;53.022;12.968;2023-03-21T07:54:36;1.93;;;1.60;;
15383;SDS011;7790;53.022;12.968;2023-03-21T07:58:37;1.53;;;1.43;;
15383;SDS011;7790;53.022;12.968;2023-03-21T08:02:38;2.03;;;1.63;;
15383;SDS011;7790;53.022;12.968;2023-03-21T08:06:40;2.57;;;1.40;;
15383;SDS011;7790;53.022;12.968;2023-03-21T08:10:41;5.80;;;1.40;;
15383;SDS011;7790;53.022;12.968;2023-03-21T08:14:43;2.53;;;1.70;;
15383;SDS011;7790;53.022;12.968;2023-03-21T08:18:44;3.10;;;1.70;;
15383;SDS011;7790;53.022;12.968;2023-03-21T08:22:45;9.27;;;3.57;;
15383;SDS011;7790;53.022;12.968;2023-03-21T08:26:46;8.53;;;2.63;;
15383;SDS011;7790;53.022;12.968;2023-03-21T08:30:47;3.83;;;2.10;;
15383;SDS011;7790;53.022;12.968;2023-03-21T08:34:49;5.57;;;3.20;;
15383;SDS011;7790;53.022;12.968;2023-03-21T08:38:50;9.23;;;3.63;;
15383;SDS011;7790;53.022;12.968;2023-03-21T08:42:56;5.30;;;2.73;;
15383;SDS011;7790;53.022;12.968;2023-03-21T08:46:57;10.63;;;3.20;;
15383;SDS011;7790;53.022;12.968;2023-03-21T08:51:01;2.87;;;2.40;;
15383;SDS011;7790;53.022;12.968;2023-03-21T08:55:02;5.70;;;2.50;;
15383;SDS011;7790;53.022;12.968;2023-03-21T08:59:03;2.60;;;2.40;;
15383;SDS011;7790;53.022;12.968;2023-03-21T09:03:04;3.37;;;2.40;;
15383;SDS011;7790;53.022;12.968;2023-03-21T09:07:05;4.37;;;2.20;;
15383;SDS011;7790;53.022;12.968;2023-03-21T09:11:07;4.27;;;2.50;;
15383;SDS011;7790;53.022;12.968;2023-03-21T09:15:08;3.83;;;2.43;;
15383;SDS011;7790;53.022;12.968;2023-03-21T09:19:11;2.37;;;2.10;;
15383;SDS011;7790;53.022;12.968;2023-03-21T09:23:12;2.73;;;2.30;;
15383;SDS011;7790;53.022;12.968;2023-03-21T09:27:14;4.87;;;2.33;;
15383;SDS011;7790;53.022;12.968;2023-03-21T09:31:22;2.70;;;2.47;;
15383;SDS011;7790;53.022;12.968;2023-03-21T09:35:24;5.63;;;2.70;;
15383;SDS011;7790;53.022;12.968;2023-03-21T09:39:26;3.80;;;2.50;;
15383;SDS011;7790;53.022;12.968;2023-03-21T09:43:34;3.13;;;2.40;;
15383;SDS011;7790;53.022;12.968;2023-03-21T09:47:50;3.03;;;2.50;;
15383;SDS011;7790;53.022;12.968;2023-03-21T09:51:53;2.87;;;2.50;;
15383;SDS011;7790;53.022;12.968;2023-03-21T09:55:55;2.80;;;2.50;;
15383;SDS011;7790;53.022;12.968;2023-03-21T09:59:57;2.60;;;2.40;;
15383;SDS011;7790;53.022;12.968;2023-03-21T10:04:13;3.00;;;2.23;;
15383;SDS011;7790;53.022;12.968;2023-03-21T10:08:20;2.20;;;2.00;;
15383;SDS011;7790;53.022;12.968;2023-03-21T10:12:26;2.40;;;1.90;;
15383;SDS011;7790;53.022;12.968;2023-03-21T10:16:31;2.30;;;2.10;;
15383;SDS011;7790;53.022;12.968;2023-03-21T10:20:53;2.23;;;2.03;;
15383;SDS011;7790;53.022;12.968;2023-03-21T10:24:54;2.10;;;1.90;;
15383;SDS011;7790;53.022;12.968;2023-03-21T10:28:57;2.23;;;2.03;;
15383;SDS011;7790;53.022;12.968;2023-03-21T10:33:02;2.33;;;2.10;;
15383;SDS011;7790;53.022;12.968;2023-03-21T10:37:05;2.00;;;1.77;;
15383;SDS011;7790;53.022;12.968;2023-03-21T10:41:06;2.10;;;2.00;;
15383;SDS011;7790;53.022;12.968;2023-03-21T10:45:16;2.43;;;2.00;;
15383;SDS011;7790;53.022;12.968;2023-03-21T10:49:21;2.40;;;2.20;;
15383;SDS011;7790;53.022;12.968;2023-03-21T10:53:30;2.60;;;2.40;;
15383;SDS011;7790;53.022;12.968;2023-03-21T10:57:34;3.30;;;1.93;;
15383;SDS011;7790;53.022;12.968;2023-03-21T11:01:40;1.80;;;1.70;;
15383;SDS011;7790;53.022;12.968;2023-03-21T11:05:44;1.90;;;1.80;;
15383;SDS011;7790;53.022;12.968;2023-03-21T11:09:52;1.80;;;1.70;;
15383;SDS011;7790;53.022;12.968;2023-03-21T11:13:59;1.70;;;1.60;;
15383;SDS011;7790;53.022;12.968;2023-03-21T11:18:39;1.80;;;1.70;;
15383;SDS011;7790;53.022;12.968;2023-03-21T11:22:39;2.00;;;1.87;;
15383;SDS011;7790;53.022;12.968;2023-03-21T11:26:43;1.73;;;1.63;;
15383;SDS011;7790;53.022;12.968;2023-03-21T11:30:54;1.60;;;1.50;;
15383;SDS011;7790;53.022;12.968;2023-03-21T11:39:12;1.97;;;1.80;;
15383;SDS011;7790;53.022;12.968;2023-03-21T11:47:26;2.03;;;1.90;;
15383;SDS011;7790;53.022;12.968;2023-03-21T11:56:08;1.73;;;1.63;;
15383;SDS011;7790;53.022;12.968;2023-03-21T12:00:34;1.80;;;1.70;;
15383;SDS011;7790;53.022;12.968;2023-03-21T12:04:41;1.80;;;1.70;;
15383;SDS011;7790;53.022;12.968;2023-03-21T12:13:27;1.70;;;1.60;;
15383;SDS011;7790;53.022;12.968;2023-03-21T12:22:24;2.13;;;2.03;;
15383;SDS011;7790;53.022;12.968;2023-03-21T12:31:04;1.80;;;1.70;;
15383;SDS011;7790;53.022;12.968;2023-03-21T12:35:20;1.90;;;1.80;;
15383;SDS011;7790;53.022;12.968;2023-03-21T12:39:45;2.40;;;2.20;;
15383;SDS011;7790;53.022;12.968;2023-03-21T12:44:03;1.87;;;1.77;;
15383;SDS011;7790;53.022;12.968;2023-03-21T12:52:27;2.37;;;2.17;;
15383;SDS011;7790;53.022;12.968;2023-03-21T12:56:36;1.93;;;1.83;;
15383;SDS011;7790;53.022;12.968;2023-03-21T13:00:52;2.40;;;2.20;;
15383;SDS011;7790;53.022;12.968;2023-03-21T13:09:34;2.40;;;2.20;;
15383;SDS011;7790;53.022;12.968;2023-03-21T13:18:04;2.90;;;2.70;;
15383;SDS011;7790;53.022;12.968;2023-03-21T13:22:40;3.00;;;2.80;;
15383;SDS011;7790;53.022;12.968;2023-03-21T13:26:46;2.80;;;2.60;;
15383;SDS011;7790;53.022;12.968;2023-03-21T13:30:50;2.67;;;2.50;;
15383;SDS011;7790;53.022;12.968;2023-03-21T13:39:24;3.20;;;3.00;;
15383;SDS011;7790;53.022;12.968;2023-03-21T13:47:41;3.50;;;3.20;;
15383;SDS011;7790;53.022;12.968;2023-03-21T13:51:55;3.10;;;2.80;;
15383;SDS011;7790;53.022;12.968;2023-03-21T13:55:59;3.10;;;2.90;;
15383;SDS011;7790;53.022;12.968;2023-03-21T14:04:27;2.87;;;2.30;;
15383;SDS011;7790;53.022;12.968;2023-03-21T14:08:30;2.43;;;2.23;;
15383;SDS011;7790;53.022;12.968;2023-03-21T14:12:40;2.17;;;2.07;;
15383;SDS011;7790;53.022;12.968;2023-03-21T14:16:43;2.33;;;2.20;;
15383;SDS011;7790;53.022;12.968;2023-03-21T14:20:44;2.13;;;2.03;;
15383;SDS011;7790;53.022;12.968;2023-03-21T14:24:54;1.97;;;1.73;;
15383;SDS011;7790;53.022;12.968;2023-03-21T14:28:56;2.10;;;1.90;;
15383;SDS011;7790;53.022;12.968;2023-03-21T14:32:59;1.80;;;1.70;;
15383;SDS011;7790;53.022;12.968;2023-03-21T14:37:32;1.73;;;1.63;;
15383;SDS011;7790;53.022;12.968;2023-03-21T14:41:48;1.77;;;1.67;;
15383;SDS011;7790;53.022;12.968;2023-03-21T14:46:11;1.40;;;1.30;;
15383;SDS011;7790;53.022;12.968;2023-03-21T14:50:12;1.60;;;1.50;;
15383;SDS011;7790;53.022;12.968;2023-03-21T14:54:14;1.40;;;1.30;;
15383;SDS011;7790;53.022;12.968;2023-03-21T14:58:18;1.50;;;1.40;;
15383;SDS011;7790;53.022;12.968;2023-03-21T15:02:24;1.50;;;1.40;;
15383;SDS011;7790;53.022;12.968;2023-03-21T15:06:28;1.50;;;1.40;;
15383;SDS011;7790;53.022;12.968;2023-03-21T15:10:30;3.60;;;3.00;;
15383;SDS011;7790;53.022;12.968;2023-03-21T15:14:32;2.40;;;1.87;;
15383;SDS011;7790;53.022;12.968;2023-03-21T15:18:35;1.37;;;1.27;;
15383;SDS011;7790;53.022;12.968;2023-03-21T15:22:38;2.73;;;1.67;;
15383;SDS011;7790;53.022;12.968;2023-03-21T15:26:45;2.17;;;1.20;;
15383;SDS011;7790;53.022;12.968;2023-03-21T15:30:48;2.53;;;1.40;;
15383;SDS011;7790;53.022;12.968;2023-03-21T15:34:50;3.60;;;1.70;;
15383;SDS011;7790;53.022;12.968;2023-03-21T15:39:04;1.53;;;1.40;;
15383;SDS011;7790;53.022;12.968;2023-03-21T15:47:12;1.30;;;1.20;;
15383;SDS011;7790;53.022;12.968;2023-03-21T15:51:16;1.33;;;1.10;;
15383;SDS011;7790;53.022;12.968;2023-03-21T15:55:29;3.10;;;1.00;;
15383;SDS011;7790;53.022;12.968;2023-03-21T15:59:39;1.63;;;0.90;;
15383;SDS011;7790;53.022;12.968;2023-03-21T16:03:42;3.97;;;1.50;;
15383;SDS011;7790;53.022;12.968;2023-03-21T16:08:05;1.43;;;1.23;;
15383;SDS011;7790;53.022;12.968;2023-03-21T16:12:18;1.97;;;1.20;;
15383;SDS011;7790;53.022;12.968;2023-03-21T16:16:20;2.57;;;1.00;;
15383;SDS011;7790;53.022;12.968;2023-03-21T16:20:23;1.43;;;1.30;;
15383;SDS011;7790;53.022;12.968;2023-03-21T16:24:31;2.50;;;1.10;;
15383;SDS011;7790;53.022;12.968;2023-03-21T16:28:32;2.53;;;1.10;;
15383;SDS011;7790;53.022;12.968;2023-03-21T16:32:33;3.00;;;1.00;;
15383;SDS011;7790;53.022;12.968;2023-03-21T16:36:35;2.37;;;1.30;;
15383;SDS011;7790;53.022;12.968;2023-03-21T16:40:38;1.63;;;1.00;;
15383;SDS011;7790;53.022;12.968;2023-03-21T16:44:41;0.97;;;0.97;;
15383;SDS011;7790;53.022;12.968;2023-03-21T16:48:42;1.23;;;1.00;;
15383;SDS011;7790;53.022;12.968;2023-03-21T16:52:45;2.30;;;1.20;;
15383;SDS011;7790;53.022;12.968;2023-03-21T16:56:47;1.20;;;0.90;;
15383;SDS011;7790;53.022;12.968;2023-03-21T17:00:50;2.40;;;0.90;;
15383;SDS011;7790;53.022;12.968;2023-03-21T17:04:51;4.13;;;1.27;;
15383;SDS011;7790;53.022;12.968;2023-03-21T17:08:53;1.27;;;0.97;;
15383;SDS011;7790;53.022;12.968;2023-03-21T17:12:55;2.27;;;1.60;;
15383;SDS011;7790;53.022;12.968;2023-03-21T17:16:56;6.90;;;2.30;;
15383;SDS011;7790;53.022;12.968;2023-03-21T17:20:56;5.10;;;1.80;;
15383;SDS011;7790;53.022;12.968;2023-03-21T17:24:57;3.57;;;1.50;;
15383;SDS011;7790;53.022;12.968;2023-03-21T17:28:58;2.27;;;1.30;;
15383;SDS011;7790;53.022;12.968;2023-03-21T17:32:59;1.57;;;1.00;;
15383;SDS011;7790;53.022;12.968;2023-03-21T17:37:00;1.30;;;1.20;;
15383;SDS011;7790;53.022;12.968;2023-03-21T17:41:01;1.40;;;1.20;;
15383;SDS011;7790;53.022;12.968;2023-03-21T17:45:02;1.10;;;1.00;;
15383;SDS011;7790;53.022;12.968;2023-03-21T17:49:04;3.27;;;1.27;;
15383;SDS011;7790;53.022;12.968;2023-03-21T17:53:05;0.90;;;0.83;;
15383;SDS011;7790;53.022;12.968;2023-03-21T17:57:08;1.33;;;0.90;;
15383;SDS011;7790;53.022;12.968;2023-03-21T18:01:10;1.80;;;0.70;;
15383;SDS011;7790;53.022;12.968;2023-03-21T18:05:11;1.10;;;0.80;;
15383;SDS011;7790;53.022;12.968;2023-03-21T18:09:12;1.20;;;0.70;;
15383;SDS011;7790;53.022;12.968;2023-03-21T18:13:12;0.93;;;0.70;;
15383;SDS011;7790;53.022;12.968;2023-03-21T18:17:13;0.80;;;0.80;;
15383;SDS011;7790;53.022;12.968;2023-03-21T18:21:18;1.33;;;0.80;;
15383;SDS011;7790;53.022;12.968;2023-03-21T18:25:19;8.50;;;2.30;;
15383;SDS011;7790;53.022;12.968;2023-03-21T18:29:20;4.97;;;1.47;;
15383;SDS011;7790;53.022;12.968;2023-03-21T18:33:21;2.80;;;1.30;;
15383;SDS011;7790;53.022;12.968;2023-03-21T18:37:22;1.73;;;1.17;;
15383;SDS011;7790;53.022;12.968;2023-03-21T18:41:23;5.00;;;1.80;;
15383;SDS011;7790;53.022;12.968;2023-03-21T18:45:23;1.93;;;0.93;;
15383;SDS011;7790;53.022;12.968;2023-03-21T18:49:25;2.47;;;1.10;;
15383;SDS011;7790;53.022;12.968;2023-03-21T18:53:27;3.83;;;1.27;;
15383;SDS011;7790;53.022;12.968;2023-03-21T18:57:29;1.33;;;1.00;;
15383;SDS011;7790;53.022;12.968;2023-03-21T19:01:32;1.40;;;1.17;;
15383;SDS011;7790;53.022;12.968;2023-03-21T19:05:33;1.77;;;1.10;;
15383;SDS011;7790;53.022;12.968;2023-03-21T19:09:34;1.47;;;1.10;;
15383;SDS011;7790;53.022;12.968;2023-03-21T19:13:36;1.83;;;1.10;;
15383;SDS011;7790;53.022;12.968;2023-03-21T19:17:37;1.13;;;1.03;;
15383;SDS011;7790;53.022;12.968;2023-03-21T19:21:38;0.90;;;0.90;;
15383;SDS011;7790;53.022;12.968;2023-03-21T19:25:38;3.53;;;1.07;;
15383;SDS011;7790;53.022;12.968;2023-03-21T19:29:40;2.10;;;0.83;;
15383;SDS011;7790;53.022;12.968;2023-03-21T19:33:41;0.97;;;0.93;;
15383;SDS011;7790;53.022;12.968;2023-03-21T19:37:42;3.50;;;1.00;;
15383;SDS011;7790;53.022;12.968;2023-03-21T19:41:42;1.00;;;0.90;;
15383;SDS011;7790;53.022;12.968;2023-03-21T19:45:46;0.73;;;0.73;;
15383;SDS011;7790;53.022;12.968;2023-03-21T19:49:47;0.93;;;0.70;;
15383;SDS011;7790;53.022;12.968;2023-03-21T19:53:50;1.47;;;0.80;;
15383;SDS011;7790;53.022;12.968;2023-03-21T19:57:51;1.13;;;0.90;;
15383;SDS011;7790;53.022;12.968;2023-03-21T20:01:52;0.93;;;0.83;;
15383;SDS011;7790;53.022;12.968;2023-03-21T20:06:03;1.37;;;1.10;;
15383;SDS011;7790;53.022;12.968;2023-03-21T20:10:07;1.67;;;0.90;;
15383;SDS011;7790;53.022;12.968;2023-03-21T20:14:08;2.57;;;0.90;;
15383;SDS011;7790;53.022;12.968;2023-03-21T20:18:09;0.90;;;0.90;;
15383;SDS011;7790;53.022;12.968;2023-03-21T20:22:10;1.33;;;0.90;;
15383;SDS011;7790;53.022;12.968;2023-03-21T20:26:12;1.33;;;0.97;;
15383;SDS011;7790;53.022;12.968;2023-03-21T20:30:15;0.80;;;0.80;;
15383;SDS011;7790;53.022;12.968;2023-03-21T20:34:18;0.90;;;0.90;;
15383;SDS011;7790;53.022;12.968;2023-03-21T20:38:19;1.73;;;1.10;;
15383;SDS011;7790;53.022;12.968;2023-03-21T20:42:20;1.87;;;1.03;;
15383;SDS011;7790;53.022;12.968;2023-03-21T20:46:20;1.73;;;1.03;;
15383;SDS011;7790;53.022;12.968;2023-03-21T20:50:21;2.07;;;0.97;;
15383;SDS011;7790;53.022;12.968;2023-03-21T20:54:22;2.53;;;0.70;;
15383;SDS011;7790;53.022;12.968;2023-03-21T20:58:23;3.80;;;1.13;;
15383;SDS011;7790;53.022;12.968;2023-03-21T21:02:24;1.63;;;1.00;;
15383;SDS011;7790;53.022;12.968;2023-03-21T21:06:25;3.57;;;1.20;;
15383;SDS011;7790;53.022;12.968;2023-03-21T21:10:27;4.27;;;1.60;;
15383;SDS011;7790;53.022;12.968;2023-03-21T21:14:29;11.57;;;7.80;;
15383;SDS011;7790;53.022;12.968;2023-03-21T21:18:30;6.67;;;3.50;;
15383;SDS011;7790;53.022;12.968;2023-03-21T21:22:31;25.07;;;13.00;;
15383;SDS011;7790;53.022;12.968;2023-03-21T21:26:32;29.23;;;16.23;;
15383;SDS011;7790;53.022;12.968;2023-03-21T21:30:35;35.07;;;19.60;;
15383;SDS011;7790;53.022;12.968;2023-03-21T21:34:37;24.07;;;15.60;;
15383;SDS011;7790;53.022;12.968;2023-03-21T21:38:39;27.80;;;14.87;;
15383;SDS011;7790;53.022;12.968;2023-03-21T21:42:40;24.30;;;14.77;;
15383;SDS011;7790;53.022;12.968;2023-03-21T21:46:42;17.07;;;10.67;;
15383;SDS011;7790;53.022;12.968;2023-03-21T21:50:43;14.63;;;8.43;;
15383;SDS011;7790;53.022;12.968;2023-03-21T21:54:46;14.80;;;8.43;;
15383;SDS011;7790;53.022;12.968;2023-03-21T21:58:47;15.67;;;9.07;;
15383;SDS011;7790;53.022;12.968;2023-03-21T22:02:51;17.83;;;8.43;;
15383;SDS011;7790;53.022;12.968;2023-03-21T22:06:55;15.00;;;8.60;;
15383;SDS011;7790;53.022;12.968;2023-03-21T22:10:56;19.03;;;7.80;;
15383;SDS011;7790;53.022;12.968;2023-03-21T22:14:58;15.90;;;7.30;;
15383;SDS011;7790;53.022;12.968;2023-03-21T22:18:59;12.30;;;6.60;;
15383;SDS011;7790;53.022;12.968;2023-03-21T22:23:00;13.47;;;6.63;;
15383;SDS011;7790;53.022;12.968;2023-03-21T22:27:01;15.83;;;6.93;;
15383;SDS011;7790;53.022;12.968;2023-03-21T22:31:09;10.50;;;6.03;;
15383;SDS011;7790;53.022;12.968;2023-03-21T22:35:12;10.20;;;6.17;;
15383;SDS011;7790;53.022;12.968;2023-03-21T22:39:13;9.97;;;5.63;;
15383;SDS011;7790;53.022;12.968;2023-03-21T22:43:14;12.17;;;5.93;;
15383;SDS011;7790;53.022;12.968;2023-03-21T22:47:15;10.37;;;5.57;;
15383;SDS011;7790;53.022;12.968;2023-03-21T22:51:15;7.33;;;5.27;;
15383;SDS011;7790;53.022;12.968;2023-03-21T22:55:16;8.77;;;5.23;;
15383;SDS011;7790;53.022;12.968;2023-03-21T22:59:17;8.77;;;5.13;;
15383;SDS011;7790;53.022;12.968;2023-03-21T23:03:18;7.93;;;4.83;;
15383;SDS011;7790;53.022;12.968;2023-03-21T23:07:19;8.17;;;4.73;;
15383;SDS011;7790;53.022;12.968;2023-03-21T23:11:20;6.27;;;4.20;;
15383;SDS011;7790;53.022;12.968;2023-03-21T23:15:22;6.13;;;4.27;;
15383;SDS011;7790;53.022;12.968;2023-03-21T23:19:23;7.10;;;4.27;;
15383;SDS011;7790;53.022;12.968;2023-03-21T23:23:26;6.77;;;3.87;;
15383;SDS011;7790;53.022;12.968;2023-03-21T23:27:28;5.53;;;3.90;;
15383;SDS011;7790;53.022;12.968;2023-03-21T23:31:29;7.97;;;3.83;;
15383;SDS011;7790;53.022;12.968;2023-03-21T23:35:33;5.70;;;3.53;;
15383;SDS011;7790;53.022;12.968;2023-03-21T23:39:34;5.07;;;3.63;;
15383;SDS011;7790;53.022;12.968;2023-03-21T23:43:35;5.33;;;3.33;;
15383;SDS011;7790;53.022;12.968;2023-03-21T23:47:37;4.83;;;3.47;;
15383;SDS011;7790;53.022;12.968;2023-03-21T23:51:38;4.73;;;3.50;;
15383;SDS011;7790;53.022;12.968;2023-03-21T23:55:38;5.10;;;3.57;;
15383;SDS011;7790;53.022;12.968;2023-03-21T23:59:40;6.30;;;3.60;;
